CDH5 weather

Nanaimo Harbour Heliport
Vancouver, British Columbia, Canada

Public forecast

Using degrees Celsius for public forecast. Weather courtesy of forecast.io.

METAR (pilot weather report)

Closest report is Nanaimo Airport, 6.7 nm (12.4 km) SSE. Retrieved 2019/07/19 13:00 UTC (22 minutes ago):

CYCD 191300Z VRB02KT 25SM FEW012 FEW080 10/08 A3008 RMK CU1AC1 SLP188

TAF (pilot weather forecast)

Forecast is more than 12 hours old.

Closest forecast is Nanaimo Airport, 6.7 nm (12.4 km) SSE. Retrieved 2019/07/18 00:00 UTC (2 days ago):

TAF CYCD 182338Z 1900/1904 16006KT P6SM SCT030 BKN080 TEMPO 1900/1904 P6SM -SHRA BKN030 BKN060 BECMG 1901/1903 36006KT RMK NXT FCST WILL BE ISSUED AT 191445Z